createdAt,value
2018-12-30T00:00:18.548Z,97719.44
2018-12-30T00:02:44.810Z,97726.75
2018-12-30T00:05:11.032Z,97733.01
2018-12-30T00:07:37.161Z,97733.61
2018-12-30T00:10:06.449Z,97719.45
2018-12-30T00:12:32.272Z,97755.20
2018-12-30T00:14:58.173Z,97736.27
2018-12-30T00:17:23.989Z,97758.83
2018-12-30T00:19:53.535Z,97767.09
2018-12-30T00:22:19.445Z,97776.19
2018-12-30T00:24:47.401Z,97787.33
2018-12-30T00:27:13.239Z,97776.22
2018-12-30T00:29:42.588Z,97777.52
2018-12-30T00:32:09.090Z,97771.03
2018-12-30T00:34:35.312Z,97758.99
2018-12-30T00:37:01.171Z,97759.98
2018-12-30T00:39:27.265Z,97747.08
2018-12-30T00:41:56.357Z,97740.66
2018-12-30T00:44:22.172Z,97761.22
2018-12-30T00:46:50.994Z,97743.63
2018-12-30T00:49:16.928Z,97742.79
2018-12-30T00:51:43.198Z,97750.93
2018-12-30T00:54:09.093Z,97766.28
2018-12-30T00:56:37.846Z,97754.27
2018-12-30T00:59:03.680Z,97753.05
2018-12-30T01:01:32.705Z,97747.97
2018-12-30T01:03:58.521Z,97753.52
2018-12-30T01:06:27.897Z,97731.58
2018-12-30T01:08:53.708Z,97751.76
2018-12-30T01:11:19.561Z,97754.30
2018-12-30T01:13:45.371Z,97745.30
2018-12-30T01:16:11.341Z,97731.58
2018-12-30T01:18:39.927Z,97747.39
2018-12-30T01:21:05.760Z,97753.43
2018-12-30T01:23:35.076Z,97754.72
2018-12-30T01:26:00.924Z,97759.55
2018-12-30T01:28:28.484Z,97753.59
2018-12-30T01:30:54.304Z,97561.64
2018-12-30T01:33:23.480Z,97777.03
2018-12-30T01:35:49.358Z,97773.17
2018-12-30T01:38:18.498Z,97772.72
2018-12-30T01:40:44.339Z,97789.00
2018-12-30T01:43:13.509Z,97764.44
2018-12-30T01:45:39.342Z,97769.09
2018-12-30T01:48:05.174Z,97761.41
2018-12-30T01:50:31.008Z,97749.73
2018-12-30T01:52:56.853Z,97748.04
2018-12-30T01:55:25.717Z,97735.08
2018-12-30T01:57:51.568Z,97728.22
2018-12-30T02:00:20.137Z,97737.73
2018-12-30T02:02:45.960Z,97737.61
2018-12-30T02:05:14.723Z,97746.13
2018-12-30T02:07:40.571Z,97770.13
2018-12-30T02:10:09.370Z,97767.87
2018-12-30T02:12:35.209Z,97773.43
2018-12-30T02:15:03.541Z,97773.77
2018-12-30T02:17:29.374Z,97790.95
2018-12-30T02:19:59.993Z,97784.09
2018-12-30T02:22:26.203Z,97804.66
2018-12-30T02:25:03.686Z,97820.19
2018-12-30T02:27:29.523Z,97801.16
2018-12-30T02:29:55.378Z,97791.77
2018-12-30T02:32:21.237Z,97818.04
2018-12-30T02:34:47.082Z,97814.48
2018-12-30T02:37:13.313Z,97815.87
2018-12-30T02:39:39.205Z,97799.10
2018-12-30T02:42:05.145Z,97800.88
2018-12-30T02:44:31.029Z,97808.13
2018-12-30T02:46:56.864Z,97805.63
2018-12-30T02:49:22.719Z,97815.48
2018-12-30T02:51:50.336Z,97809.44
2018-12-30T02:54:16.415Z,97802.64
2018-12-30T02:56:45.678Z,97802.16
2018-12-30T02:59:11.527Z,97816.27
2018-12-30T03:01:37.348Z,97793.54
2018-12-30T03:04:03.167Z,97805.07
2018-12-30T03:06:29.015Z,97794.91
2018-12-30T03:08:55.339Z,97793.54
2018-12-30T03:11:21.441Z,97810.19
2018-12-30T03:13:49.919Z,97799.00
2018-12-30T03:16:15.992Z,97799.46
2018-12-30T03:18:47.137Z,97801.97
2018-12-30T03:21:13.160Z,97814.44
2018-12-30T03:23:42.184Z,97802.70
2018-12-30T03:26:08.308Z,97812.09
2018-12-30T03:28:34.148Z,97815.55
2018-12-30T03:30:59.969Z,97806.07
2018-12-30T03:33:28.818Z,97811.48
2018-12-30T03:35:54.909Z,97816.13
2018-12-30T03:38:21.055Z,97813.33
2018-12-30T03:40:46.862Z,97834.35
2018-12-30T03:43:12.718Z,97834.98
2018-12-30T03:45:41.293Z,97841.12
2018-12-30T03:48:07.431Z,97840.94
2018-12-30T03:50:36.602Z,97839.77
2018-12-30T03:53:02.476Z,97848.35
2018-12-30T03:55:31.323Z,97835.50
2018-12-30T03:57:57.365Z,97863.89
2018-12-30T04:00:26.377Z,97841.62
2018-12-30T04:02:52.212Z,97842.92
2018-12-30T04:05:19.652Z,97826.14
2018-12-30T04:07:45.773Z,97840.77
2018-12-30T04:10:14.733Z,97834.02
2018-12-30T04:12:40.569Z,97826.06
2018-12-30T04:15:06.660Z,97824.81
2018-12-30T04:17:32.785Z,97818.27
2018-12-30T04:19:58.634Z,97816.48
2018-12-30T04:22:27.902Z,97825.45
2018-12-30T04:24:54.009Z,97826.26
2018-12-30T04:27:23.581Z,97831.80
2018-12-30T04:29:49.483Z,97830.13
2018-12-30T04:32:15.325Z,97839.06
2018-12-30T04:34:41.183Z,97843.73
2018-12-30T04:37:12.122Z,97842.91
2018-12-30T04:39:38.272Z,97846.68
2018-12-30T04:42:07.058Z,97853.92
2018-12-30T04:44:32.908Z,97874.08
2018-12-30T04:47:01.727Z,97855.09
2018-12-30T04:49:27.583Z,97861.06
2018-12-30T04:51:53.393Z,97871.78
2018-12-30T04:54:19.248Z,97867.03
2018-12-30T04:56:45.404Z,97863.16
2018-12-30T04:59:11.264Z,97852.53
2018-12-30T05:01:37.100Z,97847.06
2018-12-30T05:04:07.973Z,97856.95
2018-12-30T05:06:33.785Z,97855.61
2018-12-30T05:09:05.071Z,97858.52
2018-12-30T05:11:30.906Z,97866.14
2018-12-30T05:13:56.758Z,97871.19
2018-12-30T05:16:22.857Z,97864.16
2018-12-30T05:18:49.884Z,97869.88
2018-12-30T05:21:16.016Z,97869.41
2018-12-30T05:23:46.771Z,97872.77
2018-12-30T05:26:12.715Z,97872.40
2018-12-30T05:28:38.842Z,97875.36
2018-12-30T05:31:04.935Z,97874.94
2018-12-30T05:33:30.797Z,97874.13
2018-12-30T05:35:56.671Z,97877.11
2018-12-30T05:38:22.496Z,97881.02
2018-12-30T05:40:53.812Z,97885.36
2018-12-30T05:43:19.915Z,97899.94
2018-12-30T05:45:45.757Z,97909.89
2018-12-30T05:48:11.897Z,97908.12
2018-12-30T05:50:40.742Z,97913.28
2018-12-30T05:53:06.573Z,97931.90
2018-12-30T05:55:34.952Z,97910.01
2018-12-30T05:58:00.832Z,97802.19
2018-12-30T06:00:29.711Z,97906.69
2018-12-30T06:02:55.809Z,97908.39
2018-12-30T06:05:21.662Z,97921.73
2018-12-30T06:07:47.517Z,97935.99
2018-12-30T06:10:13.417Z,97930.02
2018-12-30T06:12:42.683Z,97947.23
2018-12-30T06:15:10.384Z,97954.95
2018-12-30T06:17:36.326Z,97956.73
2018-12-30T06:20:03.254Z,97971.31
2018-12-30T06:22:32.096Z,97951.56
2018-12-30T06:24:57.912Z,97956.23
2018-12-30T06:27:26.566Z,97955.52
2018-12-30T06:29:52.667Z,97970.34
2018-12-30T06:32:21.807Z,97971.70
2018-12-30T06:34:47.670Z,97981.16
2018-12-30T06:37:16.555Z,97982.82
2018-12-30T06:39:42.544Z,97988.06
2018-12-30T06:42:08.644Z,97987.70
2018-12-30T06:44:34.486Z,97994.95
2018-12-30T06:47:00.440Z,97989.80
2018-12-30T06:49:29.408Z,97996.69
2018-12-30T06:51:55.270Z,98021.61
2018-12-30T06:54:24.412Z,98000.47
2018-12-30T06:56:50.256Z,98018.48
2018-12-30T06:59:19.547Z,98005.58
2018-12-30T07:01:45.404Z,98013.22
2018-12-30T07:04:11.458Z,98021.84
2018-12-30T07:06:38.425Z,98027.78
2018-12-30T07:09:07.347Z,98017.87
2018-12-30T07:11:36.119Z,98041.60
2018-12-30T07:14:02.041Z,98026.49
2018-12-30T07:16:27.868Z,98029.52
2018-12-30T07:18:53.940Z,98030.77
2018-12-30T07:21:19.790Z,98036.27
2018-12-30T07:23:45.612Z,98044.95
2018-12-30T07:26:14.251Z,98049.95
2018-12-30T07:28:40.063Z,98056.00
2018-12-30T07:31:07.185Z,98054.69
2018-12-30T07:33:32.986Z,98065.84
2018-12-30T07:36:01.700Z,98060.75
2018-12-30T07:38:27.829Z,98080.92
2018-12-30T07:40:58.622Z,98071.55
2018-12-30T07:43:24.733Z,98068.59
2018-12-30T07:45:53.632Z,98073.64
2018-12-30T07:48:20.027Z,98075.86
2018-12-30T07:50:45.961Z,98076.75
2018-12-30T07:53:13.883Z,98071.11
2018-12-30T07:55:40.129Z,98077.53
2018-12-30T07:58:05.966Z,98074.88
2018-12-30T08:00:31.933Z,98064.22
2018-12-30T08:02:58.115Z,98076.73
2018-12-30T08:05:24.266Z,98071.11
2018-12-30T08:07:52.503Z,98079.30
2018-12-30T08:10:21.367Z,98082.70
2018-12-30T08:12:47.208Z,98073.66
2018-12-30T08:15:13.020Z,98058.75
2018-12-30T08:17:41.211Z,98069.31
2018-12-30T08:20:07.305Z,98065.03
2018-12-30T08:22:36.353Z,98062.88
2018-12-30T08:25:02.335Z,98062.86
2018-12-30T08:27:32.570Z,98068.84
2018-12-30T08:30:01.942Z,98089.34
2018-12-30T08:32:27.759Z,98068.52
2018-12-30T08:34:53.631Z,98072.73
2018-12-30T08:37:19.428Z,98068.36
2018-12-30T08:39:45.235Z,98081.98
2018-12-30T08:42:11.093Z,98080.17
2018-12-30T08:44:39.686Z,98084.75
2018-12-30T08:47:05.526Z,98100.15
2018-12-30T08:49:34.089Z,98090.22
2018-12-30T08:52:00.193Z,98098.83
2018-12-30T08:54:29.055Z,98109.36
2018-12-30T08:56:55.166Z,98128.24
2018-12-30T08:59:24.195Z,98117.47
2018-12-30T09:01:50.043Z,98135.21
2018-12-30T09:04:19.170Z,98133.53
2018-12-30T09:06:45.008Z,98147.05
2018-12-30T09:09:10.921Z,98130.34
2018-12-30T09:11:36.867Z,98145.17
2018-12-30T09:14:02.807Z,98146.08
2018-12-30T09:16:28.634Z,98144.16
2018-12-30T09:18:54.501Z,98148.57
2018-12-30T09:21:26.214Z,98149.87
2018-12-30T09:23:52.341Z,98157.58
2018-12-30T09:26:18.150Z,98157.28
2018-12-30T09:28:47.423Z,98161.55
2018-12-30T09:31:13.319Z,98167.06
2018-12-30T09:33:39.476Z,98172.63
2018-12-30T09:36:08.417Z,98176.41
2018-12-30T09:38:34.587Z,98183.53
2018-12-30T09:41:02.019Z,98164.37
2018-12-30T09:43:28.302Z,98173.52
2018-12-30T09:45:54.125Z,98163.29
2018-12-30T09:48:19.998Z,98166.73
2018-12-30T09:50:46.299Z,98166.73
2018-12-30T09:53:15.516Z,98175.09
2018-12-30T09:55:41.382Z,98186.63
2018-12-30T09:58:08.541Z,98189.42
2018-12-30T10:00:34.380Z,98182.56
2018-12-30T10:03:03.547Z,98187.63
2018-12-30T10:05:29.361Z,98179.55
2018-12-30T10:07:57.930Z,98188.00
2018-12-30T10:10:24.043Z,98181.95
2018-12-30T10:12:52.936Z,98192.30
2018-12-30T10:15:18.960Z,98207.02
2018-12-30T10:17:48.224Z,98197.47
2018-12-30T10:20:14.157Z,98191.97
2018-12-30T10:22:39.965Z,98193.77
2018-12-30T10:25:06.058Z,98191.91
2018-12-30T10:27:31.885Z,98188.41
2018-12-30T10:30:00.813Z,98187.89
2018-12-30T10:32:26.653Z,98189.02
2018-12-30T10:34:54.261Z,98188.61
2018-12-30T10:37:20.101Z,98196.05
2018-12-30T10:39:49.392Z,98190.52
2018-12-30T10:42:15.480Z,98202.05
2018-12-30T10:44:44.255Z,98187.00
2018-12-30T10:47:10.382Z,98191.33
2018-12-30T10:49:39.002Z,98169.05
2018-12-30T10:52:04.830Z,98181.54
2018-12-30T10:54:33.464Z,98168.06
2018-12-30T10:56:59.310Z,98167.95
2018-12-30T10:59:25.405Z,98167.53
2018-12-30T11:01:51.534Z,98170.09
2018-12-30T11:04:17.440Z,98172.97
2018-12-30T11:06:47.326Z,98172.44
2018-12-30T11:09:13.182Z,98184.55
2018-12-30T11:11:39.047Z,98179.34
2018-12-30T11:14:04.848Z,98187.29
2018-12-30T11:16:35.534Z,98182.00
2018-12-30T11:19:01.361Z,98180.75
2018-12-30T11:21:30.298Z,98173.06
2018-12-30T11:23:56.135Z,98171.67
2018-12-30T11:26:24.819Z,98170.77
2018-12-30T11:28:50.681Z,98180.84
2018-12-30T11:31:18.076Z,98164.54
2018-12-30T11:33:44.168Z,98171.41
2018-12-30T11:36:10.059Z,98158.94
2018-12-30T11:38:35.868Z,98151.02
2018-12-30T11:41:02.025Z,98144.86
2018-12-30T11:43:31.073Z,98143.16
2018-12-30T11:45:56.984Z,98151.41
2018-12-30T11:48:25.812Z,98132.16
2018-12-30T11:50:51.665Z,98167.45
2018-12-30T11:53:20.622Z,98145.69
2018-12-30T12:07:40.855Z,98170.23
2018-12-30T12:10:06.757Z,98161.76
2018-12-30T12:15:40.736Z,98170.20
2018-12-30T12:18:06.569Z,98169.35
2018-12-30T12:56:40.350Z,98149.34
2018-12-30T12:59:13.978Z,98162.63
2018-12-30T13:01:40.493Z,98162.76
2018-12-30T13:04:06.607Z,98158.62
2018-12-30T13:06:32.451Z,98153.67
2018-12-30T13:08:58.304Z,98154.06
2018-12-30T13:11:24.427Z,98163.58
2018-12-30T13:13:50.609Z,98157.00
2018-12-30T13:16:16.753Z,98163.53
2018-12-30T13:18:42.570Z,98154.17
2018-12-30T13:21:08.436Z,98146.79
2018-12-30T13:23:34.258Z,98154.06
2018-12-30T13:26:03.111Z,98167.39
2018-12-30T13:28:29.009Z,98160.06
2018-12-30T13:31:15.134Z,98162.63
2018-12-30T13:33:40.975Z,98158.98
2018-12-30T13:36:08.028Z,98153.20
2018-12-30T13:38:33.873Z,98160.11
2018-12-30T13:40:59.705Z,98172.63
2018-12-30T13:43:25.832Z,98108.73
2018-12-30T13:45:51.968Z,98171.59
2018-12-30T13:48:17.809Z,98171.53
2018-12-30T13:50:44.148Z,98171.45
2018-12-30T13:53:09.992Z,98171.94
2018-12-30T13:55:36.113Z,98172.02
2018-12-30T13:58:01.954Z,98159.37
2018-12-30T14:00:27.796Z,98150.03
2018-12-30T14:02:53.640Z,98123.28
2018-12-30T14:05:20.833Z,98149.87
2018-12-30T14:07:50.357Z,98145.11
2018-12-30T14:10:16.547Z,97953.20
2018-12-30T14:12:42.450Z,98125.63
2018-12-30T14:15:08.422Z,98136.06
2018-12-30T14:17:34.232Z,98136.92
2018-12-30T14:20:06.538Z,98143.39
2018-12-30T14:22:28.960Z,98139.13
2018-12-30T14:24:57.846Z,98138.27
2018-12-30T14:27:23.656Z,98120.90
2018-12-30T14:29:49.703Z,98143.02
2018-12-30T14:32:18.886Z,98142.20
2018-12-30T14:34:44.977Z,98148.36
2018-12-30T14:37:13.889Z,98154.86
2018-12-30T14:39:39.758Z,98161.64
2018-12-30T14:42:05.759Z,98168.52
2018-12-30T14:44:32.135Z,98186.59
2018-12-30T14:46:57.897Z,98172.53
2018-12-30T14:49:23.732Z,98168.33
2018-12-30T14:51:49.545Z,98172.13
2018-12-30T14:54:18.767Z,98173.83
2018-12-30T14:56:45.080Z,98196.56
2018-12-30T14:59:14.125Z,98180.19
2018-12-30T15:01:39.984Z,98190.83
2018-12-30T15:04:07.459Z,98189.96
2018-12-30T15:06:33.328Z,98203.66
2018-12-30T15:09:04.367Z,98206.17
2018-12-30T15:11:30.501Z,98211.34
2018-12-30T15:13:56.337Z,98218.90
2018-12-30T15:16:22.444Z,98217.05
2018-12-30T15:18:51.340Z,98213.51
2018-12-30T15:21:17.189Z,98231.23
2018-12-30T15:23:43.247Z,98212.34
2018-12-30T15:26:09.362Z,98210.30
2018-12-30T15:28:35.524Z,98209.97
2018-12-30T15:31:04.405Z,98205.27
2018-12-30T15:33:30.239Z,98223.02
2018-12-30T15:35:59.195Z,98211.34
2018-12-30T15:38:25.105Z,98216.00
2018-12-30T15:40:53.862Z,98209.95
2018-12-30T15:43:19.703Z,98208.76
2018-12-30T15:45:48.418Z,98208.34
2018-12-30T15:48:14.278Z,98224.58
2018-12-30T15:50:43.206Z,98210.43
2018-12-30T15:53:09.430Z,98210.27
2018-12-30T15:55:36.712Z,98207.21
2018-12-30T15:58:02.560Z,98206.42
2018-12-30T16:00:28.407Z,98199.05
2018-12-30T16:02:54.240Z,98192.19
2018-12-30T16:05:20.067Z,98202.45
2018-12-30T16:07:50.841Z,98220.03
2018-12-30T16:10:16.696Z,98231.26
2018-12-30T16:12:46.547Z,98226.02
2018-12-30T16:15:12.391Z,98194.34
2018-12-30T16:17:38.483Z,98234.39
2018-12-30T16:20:09.305Z,98225.70
2018-12-30T16:22:35.474Z,98229.94
2018-12-30T16:25:01.329Z,98230.36
2018-12-30T16:27:27.457Z,98219.11
2018-12-30T16:29:53.281Z,98213.16
2018-12-30T16:32:22.684Z,98208.47
2018-12-30T16:34:50.875Z,98231.41
2018-12-30T16:37:16.795Z,98218.85
2018-12-30T16:39:42.707Z,98215.91
2018-12-30T16:42:08.949Z,98218.56
2018-12-30T16:44:35.075Z,98217.30
2018-12-30T16:47:02.075Z,98216.99
2018-12-30T16:49:30.768Z,98206.33
2018-12-30T16:51:58.944Z,98202.46
2018-12-30T16:54:25.272Z,98186.58
2018-12-30T16:56:51.106Z,98193.58
2018-12-30T16:59:20.215Z,98191.48
2018-12-30T17:01:46.067Z,98201.82
2018-12-30T17:04:15.375Z,98184.66
2018-12-30T17:06:41.232Z,98180.87
2018-12-30T17:09:07.208Z,98187.45
2018-12-30T17:11:33.353Z,98184.95
2018-12-30T17:13:59.184Z,98196.95
2018-12-30T17:16:25.022Z,98189.55
2018-12-30T17:18:55.995Z,98182.70
2018-12-30T17:21:21.496Z,98176.83
2018-12-30T17:23:51.833Z,98195.67
2018-12-30T17:26:17.651Z,98181.91
2018-12-30T17:28:43.514Z,98188.74
2018-12-30T17:31:09.488Z,98195.62
2018-12-30T17:33:35.315Z,98193.58
2018-12-30T17:36:04.183Z,98194.06
2018-12-30T17:38:30.093Z,98199.23
2018-12-30T17:41:01.588Z,98198.73
2018-12-30T17:43:27.265Z,98210.44
2018-12-30T17:45:54.222Z,98205.26
2018-12-30T17:48:20.096Z,98211.17
2018-12-30T17:50:45.931Z,98209.81
2018-12-30T17:53:11.852Z,98207.69
2018-12-30T17:55:37.693Z,98205.98
2018-12-30T17:58:06.791Z,98203.81
2018-12-30T18:00:32.986Z,98203.84
2018-12-30T18:02:59.427Z,98199.95
2018-12-30T18:05:25.261Z,98221.35
2018-12-30T18:07:53.328Z,98209.30
2018-12-30T18:10:19.130Z,98214.34
2018-12-30T18:12:49.632Z,98207.86
2018-12-30T18:15:13.259Z,98209.09
2018-12-30T18:17:41.642Z,98208.20
2018-12-30T18:20:07.369Z,98211.66
2018-12-30T18:22:33.218Z,98209.88
2018-12-30T18:25:05.982Z,98225.30
2018-12-30T18:27:32.075Z,98222.72
2018-12-30T18:29:58.191Z,98211.59
2018-12-30T18:32:24.329Z,98221.02
2018-12-30T18:34:50.189Z,98221.08
2018-12-30T18:37:16.058Z,98225.63
2018-12-30T18:39:47.437Z,98218.30
2018-12-30T18:42:13.292Z,98214.91
2018-12-30T18:44:39.115Z,98212.39
2018-12-30T18:47:04.970Z,98210.23
2018-12-30T18:49:35.410Z,98210.70
2018-12-30T18:52:01.328Z,98201.32
2018-12-30T18:54:30.913Z,98205.70
2018-12-30T18:56:57.268Z,98205.69
2018-12-30T18:59:23.102Z,98205.68
2018-12-30T19:01:48.916Z,98211.67
2018-12-30T19:04:15.009Z,98208.03
2018-12-30T19:06:40.905Z,98199.39
2018-12-30T19:09:06.973Z,98193.02
2018-12-30T19:11:35.578Z,98193.91
2018-12-30T19:14:01.551Z,98196.98
2018-12-30T19:16:30.862Z,98193.11
2018-12-30T19:18:56.709Z,97950.36
2018-12-30T19:21:25.509Z,98196.83
2018-12-30T19:23:51.376Z,98207.97
2018-12-30T19:26:20.240Z,98195.59
2018-12-30T19:28:46.087Z,98181.84
2018-12-30T19:31:15.157Z,98184.06
2018-12-30T19:33:40.998Z,98188.27
2018-12-30T19:36:08.760Z,98176.17
2018-12-30T19:38:34.603Z,98178.73
2018-12-30T19:41:00.407Z,98175.77
2018-12-30T19:43:26.555Z,98174.00
2018-12-30T19:45:52.417Z,98186.89
2018-12-30T19:48:20.433Z,98193.41
2018-12-30T19:50:46.409Z,98198.52
2018-12-30T19:53:15.502Z,98191.23
2018-12-30T19:55:41.320Z,98211.51
2018-12-30T19:58:11.499Z,98186.97
2018-12-30T20:00:37.361Z,98185.20
2018-12-30T20:03:06.556Z,98180.42
2018-12-30T20:05:32.473Z,98200.67
2018-12-30T20:08:01.375Z,98190.05
2018-12-30T20:10:27.572Z,98202.87
2018-12-30T20:12:57.814Z,98187.80
2018-12-30T20:15:23.840Z,98203.20
2018-12-30T20:17:49.649Z,98188.27
2018-12-30T20:20:15.798Z,98184.80
2018-12-30T20:22:41.932Z,98194.24
2018-12-30T20:25:07.767Z,98184.73
2018-12-30T20:27:39.145Z,98173.91
2018-12-30T20:30:06.511Z,98168.22
2018-12-30T20:32:32.576Z,98168.66
2018-12-30T20:34:58.654Z,98178.55
2018-12-30T20:37:24.573Z,98181.96
2018-12-30T20:39:50.494Z,98168.95
2018-12-30T20:42:16.377Z,98164.50
2018-12-30T20:44:45.087Z,98165.77
2018-12-30T20:47:11.069Z,98164.56
2018-12-30T20:49:39.171Z,98171.67
2018-12-30T20:52:05.018Z,98167.80
2018-12-30T20:54:31.139Z,98171.67
2018-12-30T20:56:56.986Z,98169.49
2018-12-30T20:59:22.808Z,98167.35
2018-12-30T21:01:51.632Z,98175.95
2018-12-30T21:04:17.472Z,98168.20
2018-12-30T21:06:46.357Z,98163.78
2018-12-30T21:09:12.486Z,98159.86
2018-12-30T21:11:41.531Z,98162.45
2018-12-30T21:14:07.352Z,98161.49
2018-12-30T21:16:36.460Z,98152.92
2018-12-30T21:19:02.290Z,98148.63
2018-12-30T21:21:31.221Z,98147.98
2018-12-30T21:23:57.378Z,98166.06
2018-12-30T21:26:26.160Z,98145.50
2018-12-30T21:28:52.004Z,98160.62
2018-12-30T21:31:17.812Z,98146.54
2018-12-30T21:33:46.749Z,98149.52
2018-12-30T21:36:12.644Z,98142.14
2018-12-30T21:38:38.485Z,98144.63
2018-12-30T21:41:04.309Z,98144.75
2018-12-30T21:43:33.483Z,98144.44
2018-12-30T21:45:59.319Z,98141.45
2018-12-30T21:48:28.184Z,98138.12
2018-12-30T21:50:54.023Z,98129.03
2018-12-30T21:53:22.621Z,98131.63
2018-12-30T21:55:54.430Z,98145.60
2018-12-30T21:58:20.520Z,98136.73
2018-12-30T22:00:46.434Z,98135.53
2018-12-30T22:03:12.284Z,98133.52
2018-12-30T22:05:41.272Z,98131.91
2018-12-30T22:08:07.124Z,98132.33
2018-12-30T22:10:32.962Z,98127.29
2018-12-30T22:12:59.073Z,98123.44
2018-12-30T22:15:24.912Z,98130.40
2018-12-30T22:17:50.840Z,98129.47
2018-12-30T22:20:16.678Z,98120.05
2018-12-30T22:22:42.494Z,98120.93
2018-12-30T22:25:10.907Z,98118.85
2018-12-30T22:27:36.768Z,98134.75
2018-12-30T22:30:07.215Z,98115.45
2018-12-30T22:32:33.066Z,98118.47
2018-12-30T22:35:01.651Z,98126.18
2018-12-30T22:37:27.468Z,98129.64
2018-12-30T22:39:56.397Z,98124.01
2018-12-30T22:42:22.297Z,98120.88
2018-12-30T22:44:48.152Z,98123.92
2018-12-30T22:47:14.014Z,98122.22
2018-12-30T22:49:39.859Z,98123.12
2018-12-30T22:52:08.030Z,98120.08
2018-12-30T22:54:34.169Z,98117.56
2018-12-30T22:57:03.243Z,98115.88
2018-12-30T22:59:29.054Z,98116.77
2018-12-30T23:01:58.024Z,98109.89
2018-12-30T23:04:23.870Z,98115.89
2018-12-30T23:06:51.314Z,98111.61
2018-12-30T23:09:17.462Z,98132.22
2018-12-30T23:11:47.068Z,98053.26
2018-12-30T23:14:12.931Z,98109.00
2018-12-30T23:16:41.789Z,98105.56
2018-12-30T23:19:07.938Z,98106.42
2018-12-30T23:21:33.769Z,98103.37
2018-12-30T23:23:59.873Z,98099.56
2018-12-30T23:26:25.984Z,98096.52
2018-12-30T23:28:55.197Z,98081.05
2018-12-30T23:31:21.404Z,98099.56
2018-12-30T23:33:47.222Z,98082.83
2018-12-30T23:36:13.050Z,98088.05
2018-12-30T23:38:44.312Z,98081.19
2018-12-30T23:41:10.369Z,98083.36
2018-12-30T23:43:36.238Z,98090.17
2018-12-30T23:46:03.002Z,98110.70
2018-12-30T23:48:31.105Z,98095.22
2018-12-30T23:50:57.253Z,98109.74
2018-12-30T23:53:25.711Z,98101.89
2018-12-30T23:55:51.547Z,98097.45
2018-12-30T23:58:17.400Z,98088.37
